sensor_id;sensor_type;location;lat;lon;timestamp;pressure;altitude;pressure_sealevel;temperature;humidity
6680;BME280;3376;42.664;23.346;2023-09-19T00:00:20;94925.44;;;18.57;87.81
6680;BME280;3376;42.664;23.346;2023-09-19T00:02:54;94928.72;;;18.52;87.38
6680;BME280;3376;42.664;23.346;2023-09-19T00:05:22;94932.41;;;18.45;88.74
6680;BME280;3376;42.664;23.346;2023-09-19T00:07:53;94912.72;;;18.29;88.46
6680;BME280;3376;42.664;23.346;2023-09-19T00:10:20;94937.06;;;18.43;88.63
6680;BME280;3376;42.664;23.346;2023-09-19T00:12:50;94933.66;;;18.42;89.33
6680;BME280;3376;42.664;23.346;2023-09-19T00:15:17;94918.91;;;18.41;88.96
6680;BME280;3376;42.664;23.346;2023-09-19T00:17:45;94925.94;;;18.47;89.64
6680;BME280;3376;42.664;23.346;2023-09-19T00:20:13;94918.94;;;18.35;89.40
6680;BME280;3376;42.664;23.346;2023-09-19T00:22:42;94927.00;;;18.40;89.17
6680;BME280;3376;42.664;23.346;2023-09-19T00:25:09;94904.47;;;18.26;89.73
6680;BME280;3376;42.664;23.346;2023-09-19T00:27:37;94907.88;;;18.26;89.92
6680;BME280;3376;42.664;23.346;2023-09-19T00:30:08;94918.94;;;18.35;90.48
6680;BME280;3376;42.664;23.346;2023-09-19T00:32:40;94916.66;;;18.45;90.87
6680;BME280;3376;42.664;23.346;2023-09-19T00:35:08;94911.84;;;18.42;90.91
6680;BME280;3376;42.664;23.346;2023-09-19T00:37:36;94915.88;;;18.38;91.14
6680;BME280;3376;42.664;23.346;2023-09-19T00:40:06;94899.75;;;18.34;91.38
6680;BME280;3376;42.664;23.346;2023-09-19T00:42:36;94903.47;;;18.27;90.96
6680;BME280;3376;42.664;23.346;2023-09-19T00:45:05;94904.22;;;18.34;91.88
6680;BME280;3376;42.664;23.346;2023-09-19T00:47:35;94877.31;;;18.14;92.07
6680;BME280;3376;42.664;23.346;2023-09-19T00:50:03;94903.03;;;18.30;91.90
6680;BME280;3376;42.664;23.346;2023-09-19T00:52:34;94891.34;;;18.26;91.78
6680;BME280;3376;42.664;23.346;2023-09-19T00:55:04;94906.53;;;18.17;91.68
6680;BME280;3376;42.664;23.346;2023-09-19T00:57:32;94908.59;;;18.09;92.85
6680;BME280;3376;42.664;23.346;2023-09-19T01:00:00;94892.97;;;17.96;93.75
6680;BME280;3376;42.664;23.346;2023-09-19T01:02:31;94909.31;;;17.98;94.05
6680;BME280;3376;42.664;23.346;2023-09-19T01:04:58;94875.13;;;17.80;94.88
6680;BME280;3376;42.664;23.346;2023-09-19T01:07:25;94905.69;;;17.92;94.97
6680;BME280;3376;42.664;23.346;2023-09-19T01:09:56;94910.16;;;17.85;94.88
6680;BME280;3376;42.664;23.346;2023-09-19T01:12:30;94897.16;;;17.72;95.24
6680;BME280;3376;42.664;23.346;2023-09-19T01:15:04;94901.75;;;17.77;94.90
6680;BME280;3376;42.664;23.346;2023-09-19T01:17:36;94903.59;;;17.70;95.69
6680;BME280;3376;42.664;23.346;2023-09-19T01:20:27;94902.97;;;17.74;96.82
6680;BME280;3376;42.664;23.346;2023-09-19T01:23:07;94891.09;;;17.72;96.10
6680;BME280;3376;42.664;23.346;2023-09-19T01:25:54;94775.19;;;16.94;97.58
6680;BME280;3376;42.664;23.346;2023-09-19T01:28:32;94908.41;;;17.73;96.68
6680;BME280;3376;42.664;23.346;2023-09-19T01:31:08;94913.94;;;17.58;97.92
6680;BME280;3376;42.664;23.346;2023-09-19T01:33:58;94919.19;;;17.58;97.66
6680;BME280;3376;42.664;23.346;2023-09-19T01:36:31;94912.13;;;17.58;98.40
6680;BME280;3376;42.664;23.346;2023-09-19T01:39:00;94901.44;;;17.53;98.92
6680;BME280;3376;42.664;23.346;2023-09-19T01:42:03;94903.63;;;17.63;99.31
6680;BME280;3376;42.664;23.346;2023-09-19T01:44:43;94891.91;;;17.66;99.10
6680;BME280;3376;42.664;23.346;2023-09-19T01:47:18;94874.50;;;17.46;99.41
6680;BME280;3376;42.664;23.346;2023-09-19T01:49:55;94893.03;;;17.51;99.85
6680;BME280;3376;42.664;23.346;2023-09-19T01:52:30;94896.63;;;17.44;100.00
6680;BME280;3376;42.664;23.346;2023-09-19T01:55:02;94905.31;;;17.44;99.66
6680;BME280;3376;42.664;23.346;2023-09-19T01:57:35;94897.47;;;17.31;100.00
6680;BME280;3376;42.664;23.346;2023-09-19T02:00:10;94893.91;;;17.19;100.00
6680;BME280;3376;42.664;23.346;2023-09-19T02:02:40;94900.72;;;17.27;100.00
6680;BME280;3376;42.664;23.346;2023-09-19T02:05:10;94914.25;;;17.24;100.00
6680;BME280;3376;42.664;23.346;2023-09-19T02:07:38;94919.69;;;17.22;100.00
6680;BME280;3376;42.664;23.346;2023-09-19T02:10:06;94901.19;;;17.04;100.00
6680;BME280;3376;42.664;23.346;2023-09-19T02:12:35;94911.66;;;17.17;100.00
6680;BME280;3376;42.664;23.346;2023-09-19T02:15:03;94905.22;;;17.13;100.00
6680;BME280;3376;42.664;23.346;2023-09-19T02:17:32;94901.56;;;17.14;100.00
6680;BME280;3376;42.664;23.346;2023-09-19T02:20:00;94906.03;;;17.14;100.00
6680;BME280;3376;42.664;23.346;2023-09-19T02:22:28;94902.59;;;17.13;100.00
6680;BME280;3376;42.664;23.346;2023-09-19T02:24:56;94911.22;;;17.20;100.00
6680;BME280;3376;42.664;23.346;2023-09-19T02:27:26;94907.19;;;17.18;100.00
6680;BME280;3376;42.664;23.346;2023-09-19T02:29:52;94902.97;;;17.17;100.00
6680;BME280;3376;42.664;23.346;2023-09-19T02:32:19;94893.34;;;17.04;100.00
6680;BME280;3376;42.664;23.346;2023-09-19T02:34:46;94900.78;;;17.07;100.00
6680;BME280;3376;42.664;23.346;2023-09-19T02:37:15;94890.72;;;17.04;100.00
6680;BME280;3376;42.664;23.346;2023-09-19T02:39:44;94894.78;;;17.00;100.00
6680;BME280;3376;42.664;23.346;2023-09-19T02:42:11;94889.94;;;16.97;100.00
6680;BME280;3376;42.664;23.346;2023-09-19T02:44:38;94877.88;;;16.83;100.00
6680;BME280;3376;42.664;23.346;2023-09-19T02:47:05;94873.91;;;16.68;100.00
6680;BME280;3376;42.664;23.346;2023-09-19T02:49:32;94880.53;;;16.70;100.00
6680;BME280;3376;42.664;23.346;2023-09-19T02:52:00;94878.50;;;16.79;100.00
6680;BME280;3376;42.664;23.346;2023-09-19T02:54:30;94881.97;;;16.73;100.00
6680;BME280;3376;42.664;23.346;2023-09-19T02:56:57;94867.88;;;16.54;100.00
6680;BME280;3376;42.664;23.346;2023-09-19T02:59:24;94867.09;;;16.54;100.00
6680;BME280;3376;42.664;23.346;2023-09-19T03:01:51;94868.28;;;16.44;100.00
6680;BME280;3376;42.664;23.346;2023-09-19T03:04:20;94859.84;;;16.29;100.00
6680;BME280;3376;42.664;23.346;2023-09-19T03:06:47;94876.09;;;16.25;100.00
6680;BME280;3376;42.664;23.346;2023-09-19T03:09:16;94863.44;;;16.22;100.00
6680;BME280;3376;42.664;23.346;2023-09-19T03:11:46;94864.06;;;16.24;100.00
6680;BME280;3376;42.664;23.346;2023-09-19T03:14:13;94858.84;;;16.17;100.00
6680;BME280;3376;42.664;23.346;2023-09-19T03:16:41;94867.09;;;16.14;100.00
6680;BME280;3376;42.664;23.346;2023-09-19T03:19:09;94862.25;;;16.18;100.00
6680;BME280;3376;42.664;23.346;2023-09-19T03:21:37;94863.66;;;16.27;100.00
6680;BME280;3376;42.664;23.346;2023-09-19T03:24:05;94860.03;;;16.34;100.00
6680;BME280;3376;42.664;23.346;2023-09-19T03:26:32;94860.41;;;16.44;100.00
6680;BME280;3376;42.664;23.346;2023-09-19T03:29:03;94844.13;;;16.36;100.00
6680;BME280;3376;42.664;23.346;2023-09-19T03:31:31;94861.03;;;16.53;100.00
6680;BME280;3376;42.664;23.346;2023-09-19T03:33:58;94859.59;;;16.44;100.00
6680;BME280;3376;42.664;23.346;2023-09-19T03:36:25;94866.28;;;16.40;100.00
6680;BME280;3376;42.664;23.346;2023-09-19T03:38:53;94856.59;;;16.34;100.00
6680;BME280;3376;42.664;23.346;2023-09-19T03:41:20;94854.19;;;16.32;100.00
6680;BME280;3376;42.664;23.346;2023-09-19T03:43:47;94860.44;;;16.38;100.00
6680;BME280;3376;42.664;23.346;2023-09-19T03:46:16;94867.88;;;16.41;100.00
6680;BME280;3376;42.664;23.346;2023-09-19T03:48:42;94873.50;;;16.44;100.00
6680;BME280;3376;42.664;23.346;2023-09-19T03:51:09;94876.34;;;16.50;100.00
6680;BME280;3376;42.664;23.346;2023-09-19T03:53:37;94875.13;;;16.59;100.00
6680;BME280;3376;42.664;23.346;2023-09-19T03:56:03;94876.31;;;16.69;100.00
6680;BME280;3376;42.664;23.346;2023-09-19T03:58:30;94882.34;;;16.76;100.00
6680;BME280;3376;42.664;23.346;2023-09-19T04:00:59;94887.78;;;16.81;100.00
6680;BME280;3376;42.664;23.346;2023-09-19T04:03:28;94882.31;;;16.89;100.00
6680;BME280;3376;42.664;23.346;2023-09-19T04:06:00;94880.31;;;16.91;100.00
6680;BME280;3376;42.664;23.346;2023-09-19T04:08:28;94879.06;;;16.94;100.00
6680;BME280;3376;42.664;23.346;2023-09-19T04:10:55;94879.50;;;16.91;100.00
6680;BME280;3376;42.664;23.346;2023-09-19T04:13:22;94889.94;;;16.97;100.00
6680;BME280;3376;42.664;23.346;2023-09-19T04:15:49;94893.75;;;17.01;100.00
6680;BME280;3376;42.664;23.346;2023-09-19T04:18:16;94872.28;;;16.80;100.00
6680;BME280;3376;42.664;23.346;2023-09-19T04:20:48;94892.38;;;16.86;100.00
6680;BME280;3376;42.664;23.346;2023-09-19T04:23:16;94892.75;;;16.96;100.00
6680;BME280;3376;42.664;23.346;2023-09-19T04:25:44;94897.59;;;17.05;100.00
6680;BME280;3376;42.664;23.346;2023-09-19T04:28:10;94889.34;;;17.02;100.00
6680;BME280;3376;42.664;23.346;2023-09-19T04:30:38;94878.88;;;17.02;100.00
6680;BME280;3376;42.664;23.346;2023-09-19T04:33:06;94884.13;;;16.89;100.00
6680;BME280;3376;42.664;23.346;2023-09-19T04:35:33;94884.75;;;16.84;100.00
6680;BME280;3376;42.664;23.346;2023-09-19T04:38:01;94794.06;;;16.26;100.00
6680;BME280;3376;42.664;23.346;2023-09-19T04:40:28;94880.13;;;16.80;100.00
6680;BME280;3376;42.664;23.346;2023-09-19T04:42:56;94892.38;;;16.92;100.00
6680;BME280;3376;42.664;23.346;2023-09-19T04:45:23;94883.47;;;17.06;100.00
6680;BME280;3376;42.664;23.346;2023-09-19T04:47:49;94883.22;;;17.27;100.00
6680;BME280;3376;42.664;23.346;2023-09-19T04:50:16;94875.72;;;17.37;100.00
6680;BME280;3376;42.664;23.346;2023-09-19T04:52:44;94877.31;;;17.51;100.00
6680;BME280;3376;42.664;23.346;2023-09-19T04:55:13;94884.88;;;17.66;100.00
6680;BME280;3376;42.664;23.346;2023-09-19T04:57:43;94878.00;;;17.72;100.00
6680;BME280;3376;42.664;23.346;2023-09-19T05:00:12;94883.56;;;17.82;100.00
6680;BME280;3376;42.664;23.346;2023-09-19T05:02:40;94874.88;;;17.88;99.11
6680;BME280;3376;42.664;23.346;2023-09-19T05:05:08;94880.84;;;18.01;98.73
6680;BME280;3376;42.664;23.346;2023-09-19T05:07:36;94858.78;;;18.09;96.72
6680;BME280;3376;42.664;23.346;2023-09-19T05:10:04;94829.19;;;18.02;95.72
6680;BME280;3376;42.664;23.346;2023-09-19T05:12:34;94867.06;;;18.37;95.49
6680;BME280;3376;42.664;23.346;2023-09-19T05:15:01;94878.66;;;18.54;94.63
6680;BME280;3376;42.664;23.346;2023-09-19T05:17:29;94859.13;;;18.68;93.99
6680;BME280;3376;42.664;23.346;2023-09-19T05:19:55;94882.81;;;19.04;92.73
6680;BME280;3376;42.664;23.346;2023-09-19T05:22:23;94881.34;;;19.26;90.59
6680;BME280;3376;42.664;23.346;2023-09-19T05:24:50;94872.00;;;19.48;89.74
6680;BME280;3376;42.664;23.346;2023-09-19T05:27:18;94868.84;;;19.58;87.89
6680;BME280;3376;42.664;23.346;2023-09-19T05:29:47;94887.47;;;19.74;86.50
6680;BME280;3376;42.664;23.346;2023-09-19T05:32:14;94879.31;;;20.06;85.60
6680;BME280;3376;42.664;23.346;2023-09-19T05:34:41;94860.69;;;20.07;83.70
6680;BME280;3376;42.664;23.346;2023-09-19T05:37:08;94870.59;;;20.23;83.43
6680;BME280;3376;42.664;23.346;2023-09-19T05:39:35;94864.22;;;20.42;81.73
6680;BME280;3376;42.664;23.346;2023-09-19T05:42:03;94872.81;;;20.61;79.90
6680;BME280;3376;42.664;23.346;2023-09-19T05:44:30;94870.06;;;20.79;78.67
6680;BME280;3376;42.664;23.346;2023-09-19T05:47:00;94868.34;;;20.84;78.11
6680;BME280;3376;42.664;23.346;2023-09-19T05:49:26;94870.63;;;20.81;77.97
6680;BME280;3376;42.664;23.346;2023-09-19T05:51:54;94860.78;;;20.76;78.61
6680;BME280;3376;42.664;23.346;2023-09-19T05:54:24;94839.25;;;20.68;78.56
6680;BME280;3376;42.664;23.346;2023-09-19T05:56:51;94856.91;;;20.90;79.75
6680;BME280;3376;42.664;23.346;2023-09-19T05:59:19;94856.50;;;21.73;81.90
6680;BME280;3376;42.664;23.346;2023-09-19T06:01:45;94866.03;;;22.18;72.77
6680;BME280;3376;42.664;23.346;2023-09-19T06:04:14;94874.06;;;22.24;71.49
6680;BME280;3376;42.664;23.346;2023-09-19T06:06:41;94866.28;;;22.17;74.03
6680;BME280;3376;42.664;23.346;2023-09-19T06:09:08;94860.59;;;22.25;72.93
6680;BME280;3376;42.664;23.346;2023-09-19T06:11:35;94852.47;;;22.43;73.15
6680;BME280;3376;42.664;23.346;2023-09-19T06:14:01;94857.59;;;22.50;69.77
6680;BME280;3376;42.664;23.346;2023-09-19T06:16:28;94865.13;;;22.58;69.41
6680;BME280;3376;42.664;23.346;2023-09-19T06:18:57;94838.88;;;22.68;70.34
6680;BME280;3376;42.664;23.346;2023-09-19T06:21:25;94873.28;;;22.89;67.81
6680;BME280;3376;42.664;23.346;2023-09-19T06:23:53;94862.69;;;23.06;67.05
6680;BME280;3376;42.664;23.346;2023-09-19T06:26:20;94859.03;;;23.28;64.99
6680;BME280;3376;42.664;23.346;2023-09-19T06:28:47;94859.13;;;23.17;66.87
6680;BME280;3376;42.664;23.346;2023-09-19T06:31:14;94851.13;;;23.12;66.18
6680;BME280;3376;42.664;23.346;2023-09-19T06:33:41;94854.81;;;23.27;66.67
6680;BME280;3376;42.664;23.346;2023-09-19T06:36:08;94757.50;;;22.86;64.65
6680;BME280;3376;42.664;23.346;2023-09-19T06:38:38;94853.69;;;23.67;62.75
6680;BME280;3376;42.664;23.346;2023-09-19T06:41:05;94855.19;;;23.84;61.72
6680;BME280;3376;42.664;23.346;2023-09-19T06:43:32;94856.28;;;23.88;61.89
6680;BME280;3376;42.664;23.346;2023-09-19T06:46:00;94860.06;;;23.92;61.73
6680;BME280;3376;42.664;23.346;2023-09-19T06:48:28;94859.50;;;23.90;62.32
6680;BME280;3376;42.664;23.346;2023-09-19T06:50:55;94867.31;;;24.02;61.17
6680;BME280;3376;42.664;23.346;2023-09-19T06:53:24;94867.63;;;24.05;60.94
6680;BME280;3376;42.664;23.346;2023-09-19T06:55:52;94857.41;;;23.92;60.98
6680;BME280;3376;42.664;23.346;2023-09-19T06:58:19;94864.91;;;24.00;61.08
6680;BME280;3376;42.664;23.346;2023-09-19T07:00:46;94872.78;;;23.95;61.01
6680;BME280;3376;42.664;23.346;2023-09-19T07:03:15;94868.16;;;23.81;60.70
6680;BME280;3376;42.664;23.346;2023-09-19T07:05:47;94876.19;;;23.69;62.26
6680;BME280;3376;42.664;23.346;2023-09-19T07:08:14;94862.78;;;23.54;62.33
6680;BME280;3376;42.664;23.346;2023-09-19T07:10:42;94856.31;;;23.23;63.78
6680;BME280;3376;42.664;23.346;2023-09-19T07:13:15;94847.00;;;23.21;64.83
6680;BME280;3376;42.664;23.346;2023-09-19T07:15:43;94864.97;;;23.36;63.25
6680;BME280;3376;42.664;23.346;2023-09-19T07:18:13;94866.84;;;23.40;62.48
6680;BME280;3376;42.664;23.346;2023-09-19T07:20:42;94869.44;;;23.35;62.42
6680;BME280;3376;42.664;23.346;2023-09-19T07:23:11;94868.09;;;23.16;62.96
6680;BME280;3376;42.664;23.346;2023-09-19T07:25:39;94866.50;;;23.15;64.01
6680;BME280;3376;42.664;23.346;2023-09-19T07:28:06;94866.19;;;23.11;64.23
6680;BME280;3376;42.664;23.346;2023-09-19T07:30:36;94864.34;;;23.28;63.53
6680;BME280;3376;42.664;23.346;2023-09-19T07:33:04;94865.50;;;23.21;63.87
6680;BME280;3376;42.664;23.346;2023-09-19T07:35:31;94861.84;;;23.22;63.62
6680;BME280;3376;42.664;23.346;2023-09-19T07:37:58;94855.81;;;23.05;64.58
6680;BME280;3376;42.664;23.346;2023-09-19T07:40:27;94858.00;;;23.13;65.37
6680;BME280;3376;42.664;23.346;2023-09-19T07:42:54;94848.13;;;23.03;65.22
6680;BME280;3376;42.664;23.346;2023-09-19T07:45:21;94865.06;;;23.24;64.02
6680;BME280;3376;42.664;23.346;2023-09-19T07:47:51;94862.94;;;23.26;62.85
6680;BME280;3376;42.664;23.346;2023-09-19T07:50:19;94858.25;;;23.11;63.90
6680;BME280;3376;42.664;23.346;2023-09-19T07:52:46;94867.44;;;23.25;63.34
6680;BME280;3376;42.664;23.346;2023-09-19T07:55:13;94869.84;;;23.27;64.43
6680;BME280;3376;42.664;23.346;2023-09-19T07:57:42;94869.75;;;23.39;63.57
6680;BME280;3376;42.664;23.346;2023-09-19T08:00:10;94875.06;;;23.60;63.22
6680;BME280;3376;42.664;23.346;2023-09-19T08:02:37;94875.53;;;23.79;63.78
6680;BME280;3376;42.664;23.346;2023-09-19T08:05:07;94877.91;;;24.02;63.75
6680;BME280;3376;42.664;23.346;2023-09-19T08:07:35;94873.53;;;24.12;62.04
6680;BME280;3376;42.664;23.346;2023-09-19T08:10:03;94865.13;;;24.20;60.97
6680;BME280;3376;42.664;23.346;2023-09-19T08:12:30;94863.63;;;24.29;60.38
6680;BME280;3376;42.664;23.346;2023-09-19T08:14:58;94856.00;;;24.38;59.33
6680;BME280;3376;42.664;23.346;2023-09-19T08:17:24;94860.91;;;24.51;59.54
6680;BME280;3376;42.664;23.346;2023-09-19T08:19:51;94854.03;;;24.55;59.73
6680;BME280;3376;42.664;23.346;2023-09-19T08:22:20;94845.19;;;24.44;58.23
6680;BME280;3376;42.664;23.346;2023-09-19T08:24:47;94858.59;;;24.60;57.70
6680;BME280;3376;42.664;23.346;2023-09-19T08:27:14;94844.72;;;24.48;58.07
6680;BME280;3376;42.664;23.346;2023-09-19T08:29:43;94844.19;;;24.51;58.64
6680;BME280;3376;42.664;23.346;2023-09-19T08:32:10;94839.38;;;24.74;57.95
6680;BME280;3376;42.664;23.346;2023-09-19T08:34:37;94842.38;;;24.88;57.75
6680;BME280;3376;42.664;23.346;2023-09-19T08:37:04;94852.38;;;24.81;57.75
6680;BME280;3376;42.664;23.346;2023-09-19T08:39:32;94846.47;;;24.69;58.18
6680;BME280;3376;42.664;23.346;2023-09-19T08:42:02;94853.84;;;24.67;57.83
6680;BME280;3376;42.664;23.346;2023-09-19T08:44:30;94850.09;;;24.94;57.08
6680;BME280;3376;42.664;23.346;2023-09-19T08:47:05;94859.31;;;25.33;55.82
6680;BME280;3376;42.664;23.346;2023-09-19T08:49:51;94835.03;;;25.57;55.03
6680;BME280;3376;42.664;23.346;2023-09-19T08:52:22;94849.28;;;26.07;53.70
6680;BME280;3376;42.664;23.346;2023-09-19T08:54:56;94839.75;;;26.31;52.77
6680;BME280;3376;42.664;23.346;2023-09-19T08:57:28;94839.19;;;26.09;52.85
6680;BME280;3376;42.664;23.346;2023-09-19T08:59:56;94835.69;;;25.99;53.15
6680;BME280;3376;42.664;23.346;2023-09-19T09:02:24;94827.16;;;25.82;53.75
6680;BME280;3376;42.664;23.346;2023-09-19T09:04:54;94829.72;;;25.51;54.48
6680;BME280;3376;42.664;23.346;2023-09-19T09:07:21;94833.09;;;25.37;55.61
6680;BME280;3376;42.664;23.346;2023-09-19T09:09:48;94829.94;;;25.40;54.67
6680;BME280;3376;42.664;23.346;2023-09-19T09:12:17;94826.22;;;25.41;54.52
6680;BME280;3376;42.664;23.346;2023-09-19T09:14:44;94819.09;;;25.46;53.78
6680;BME280;3376;42.664;23.346;2023-09-19T09:17:15;94754.53;;;25.31;53.55
6680;BME280;3376;42.664;23.346;2023-09-19T09:19:45;94826.41;;;25.96;52.84
6680;BME280;3376;42.664;23.346;2023-09-19T09:22:12;94829.38;;;26.05;52.23
6680;BME280;3376;42.664;23.346;2023-09-19T09:24:51;94821.31;;;25.80;52.24
6680;BME280;3376;42.664;23.346;2023-09-19T09:27:20;94819.06;;;25.41;53.27
6680;BME280;3376;42.664;23.346;2023-09-19T09:29:50;94811.25;;;25.20;55.41
6680;BME280;3376;42.664;23.346;2023-09-19T09:32:21;94809.47;;;25.35;55.24
6680;BME280;3376;42.664;23.346;2023-09-19T09:34:50;94803.25;;;25.77;54.10
6680;BME280;3376;42.664;23.346;2023-09-19T09:37:18;94816.34;;;26.13;53.38
6680;BME280;3376;42.664;23.346;2023-09-19T09:39:50;94806.81;;;26.47;51.91
6680;BME280;3376;42.664;23.346;2023-09-19T09:42:33;94798.28;;;26.71;50.96
6680;BME280;3376;42.664;23.346;2023-09-19T09:45:17;94799.09;;;26.76;51.39
6680;BME280;3376;42.664;23.346;2023-09-19T09:47:45;94788.72;;;26.80;50.17
6680;BME280;3376;42.664;23.346;2023-09-19T09:50:25;94793.97;;;27.05;49.34
6680;BME280;3376;42.664;23.346;2023-09-19T09:52:55;94796.28;;;27.26;49.12
6680;BME280;3376;42.664;23.346;2023-09-19T09:56:01;94787.41;;;27.56;48.13
6680;BME280;3376;42.664;23.346;2023-09-19T09:58:31;94784.56;;;27.86;47.36
6680;BME280;3376;42.664;23.346;2023-09-19T10:00:59;94789.31;;;28.04;46.92
6680;BME280;3376;42.664;23.346;2023-09-19T10:03:34;94786.63;;;27.99;47.16
6680;BME280;3376;42.664;23.346;2023-09-19T10:06:06;94790.72;;;27.33;48.12
6680;BME280;3376;42.664;23.346;2023-09-19T10:09:03;94754.66;;;26.82;49.05
6680;BME280;3376;42.664;23.346;2023-09-19T10:11:41;94766.88;;;26.93;49.48
6680;BME280;3376;42.664;23.346;2023-09-19T10:14:09;94783.34;;;27.05;48.87
6680;BME280;3376;42.664;23.346;2023-09-19T10:16:40;94792.09;;;27.10;48.67
6680;BME280;3376;42.664;23.346;2023-09-19T10:19:07;94776.44;;;26.99;49.71
6680;BME280;3376;42.664;23.346;2023-09-19T10:21:36;94776.47;;;26.84;49.23
6680;BME280;3376;42.664;23.346;2023-09-19T10:24:05;94773.56;;;26.65;50.05
6680;BME280;3376;42.664;23.346;2023-09-19T10:26:34;94756.28;;;26.52;50.78
6680;BME280;3376;42.664;23.346;2023-09-19T10:29:06;94769.03;;;26.60;51.07
6680;BME280;3376;42.664;23.346;2023-09-19T10:31:36;94767.75;;;26.38;51.62
6680;BME280;3376;42.664;23.346;2023-09-19T10:34:06;94766.97;;;26.22;52.68
6680;BME280;3376;42.664;23.346;2023-09-19T10:36:36;94757.66;;;26.20;53.10
6680;BME280;3376;42.664;23.346;2023-09-19T10:39:05;94755.25;;;26.28;52.60
6680;BME280;3376;42.664;23.346;2023-09-19T10:41:34;94737.47;;;26.24;52.79
6680;BME280;3376;42.664;23.346;2023-09-19T10:44:04;94759.50;;;26.44;51.85
6680;BME280;3376;42.664;23.346;2023-09-19T10:46:32;94755.25;;;26.58;50.85
6680;BME280;3376;42.664;23.346;2023-09-19T10:48:59;94757.09;;;26.53;51.57
6680;BME280;3376;42.664;23.346;2023-09-19T10:51:30;94757.38;;;26.56;50.74
6680;BME280;3376;42.664;23.346;2023-09-19T10:54:02;94755.22;;;26.53;51.52
6680;BME280;3376;42.664;23.346;2023-09-19T10:56:35;94748.88;;;26.14;52.91
6680;BME280;3376;42.664;23.346;2023-09-19T10:59:09;94742.78;;;26.14;52.01
6680;BME280;3376;42.664;23.346;2023-09-19T11:01:45;94743.84;;;26.18;52.52
6680;BME280;3376;42.664;23.346;2023-09-19T11:04:27;94710.91;;;26.04;52.23
6680;BME280;3376;42.664;23.346;2023-09-19T11:07:05;94738.28;;;26.29;51.58
6680;BME280;3376;42.664;23.346;2023-09-19T11:09:46;94740.09;;;26.39;51.14
6680;BME280;3376;42.664;23.346;2023-09-19T11:12:47;94745.69;;;26.42;50.95
6680;BME280;3376;42.664;23.346;2023-09-19T11:21:55;94740.84;;;26.64;50.86
6680;BME280;3376;42.664;23.346;2023-09-19T11:24:32;94725.41;;;26.87;50.53
6680;BME280;3376;42.664;23.346;2023-09-19T11:27:19;94731.25;;;26.89;50.45
6680;BME280;3376;42.664;23.346;2023-09-19T11:29:46;94730.66;;;27.02;50.39
6680;BME280;3376;42.664;23.346;2023-09-19T11:32:14;94720.50;;;27.14;49.25
6680;BME280;3376;42.664;23.346;2023-09-19T11:34:44;94714.09;;;27.30;49.16
6680;BME280;3376;42.664;23.346;2023-09-19T11:44:31;94705.94;;;27.55;47.99
6680;BME280;3376;42.664;23.346;2023-09-19T11:47:00;94691.19;;;27.72;47.29
6680;BME280;3376;42.664;23.346;2023-09-19T11:49:30;94686.63;;;27.78;46.77
6680;BME280;3376;42.664;23.346;2023-09-19T11:52:00;94670.50;;;27.64;47.39
6680;BME280;3376;42.664;23.346;2023-09-19T11:54:31;94678.13;;;27.37;48.78
6680;BME280;3376;42.664;23.346;2023-09-19T11:57:00;94680.06;;;27.22;49.41
6680;BME280;3376;42.664;23.346;2023-09-19T11:59:28;94680.06;;;27.22;49.60
6680;BME280;3376;42.664;23.346;2023-09-19T12:01:56;94684.53;;;27.31;49.03
6680;BME280;3376;42.664;23.346;2023-09-19T12:04:37;94681.06;;;27.26;49.34
6680;BME280;3376;42.664;23.346;2023-09-19T12:07:06;94679.47;;;27.35;50.11
6680;BME280;3376;42.664;23.346;2023-09-19T12:09:40;94673.84;;;27.41;49.29
6680;BME280;3376;42.664;23.346;2023-09-19T12:12:11;94668.75;;;27.45;49.04
6680;BME280;3376;42.664;23.346;2023-09-19T12:14:47;94667.09;;;27.54;48.83
6680;BME280;3376;42.664;23.346;2023-09-19T12:17:15;94659.91;;;27.54;48.61
6680;BME280;3376;42.664;23.346;2023-09-19T12:19:49;94563.47;;;26.85;48.54
6680;BME280;3376;42.664;23.346;2023-09-19T12:22:17;94653.47;;;27.60;48.30
6680;BME280;3376;42.664;23.346;2023-09-19T12:24:46;94649.03;;;27.51;48.16
6680;BME280;3376;42.664;23.346;2023-09-19T12:27:15;94644.53;;;27.80;48.37
6680;BME280;3376;42.664;23.346;2023-09-19T12:29:43;94643.50;;;28.10;46.97
6680;BME280;3376;42.664;23.346;2023-09-19T12:32:11;94646.63;;;28.45;46.83
6680;BME280;3376;42.664;23.346;2023-09-19T12:34:38;94642.25;;;28.78;45.57
6680;BME280;3376;42.664;23.346;2023-09-19T12:37:09;94642.28;;;29.20;44.68
6680;BME280;3376;42.664;23.346;2023-09-19T12:39:43;94618.25;;;29.39;43.30
6680;BME280;3376;42.664;23.346;2023-09-19T12:42:16;94632.81;;;29.65;43.52
6680;BME280;3376;42.664;23.346;2023-09-19T12:44:45;94632.13;;;29.91;42.68
6680;BME280;3376;42.664;23.346;2023-09-19T12:47:13;94622.53;;;29.90;43.14
6680;BME280;3376;42.664;23.346;2023-09-19T12:50:06;94639.28;;;29.96;42.95
6680;BME280;3376;42.664;23.346;2023-09-19T12:52:39;94631.28;;;29.96;42.67
6680;BME280;3376;42.664;23.346;2023-09-19T12:55:06;94641.19;;;29.77;42.35
6680;BME280;3376;42.664;23.346;2023-09-19T12:57:36;94622.38;;;29.50;43.37
6680;BME280;3376;42.664;23.346;2023-09-19T13:00:05;94632.53;;;29.48;43.17
6680;BME280;3376;42.664;23.346;2023-09-19T13:02:33;94621.00;;;29.34;43.34
6680;BME280;3376;42.664;23.346;2023-09-19T13:04:59;94629.22;;;29.19;43.58
6680;BME280;3376;42.664;23.346;2023-09-19T13:07:43;94611.41;;;28.90;44.68
6680;BME280;3376;42.664;23.346;2023-09-19T13:10:12;94606.13;;;29.09;44.35
6680;BME280;3376;42.664;23.346;2023-09-19T13:12:43;94602.66;;;29.09;44.26
6680;BME280;3376;42.664;23.346;2023-09-19T13:15:14;94606.75;;;29.01;44.43
6680;BME280;3376;42.664;23.346;2023-09-19T13:17:45;94577.69;;;29.00;44.55
6680;BME280;3376;42.664;23.346;2023-09-19T13:20:23;94604.16;;;28.96;44.42
6680;BME280;3376;42.664;23.346;2023-09-19T13:22:53;94616.06;;;29.04;44.45
6680;BME280;3376;42.664;23.346;2023-09-19T13:25:25;94603.56;;;28.80;44.81
6680;BME280;3376;42.664;23.346;2023-09-19T13:27:57;94595.47;;;28.67;45.73
6680;BME280;3376;42.664;23.346;2023-09-19T13:30:26;94581.44;;;28.56;45.20
6680;BME280;3376;42.664;23.346;2023-09-19T13:33:04;94583.63;;;28.73;44.84
6680;BME280;3376;42.664;23.346;2023-09-19T13:35:31;94586.41;;;28.86;44.78